createdAt,value
2022-08-10T00:00:36.297Z,21.1
2022-08-10T00:01:39.916Z,21.1
2022-08-10T00:02:43.118Z,21.1
2022-08-10T00:03:46.035Z,21
2022-08-10T00:04:48.672Z,21
2022-08-10T00:05:54.006Z,21
2022-08-10T00:06:56.722Z,21
2022-08-10T00:07:59.339Z,20.9
2022-08-10T00:09:01.687Z,20.9
2022-08-10T00:10:04.360Z,20.9
2022-08-10T00:11:17.415Z,20.9
2022-08-10T00:12:20.484Z,20.8
2022-08-10T00:13:23.130Z,20.8
2022-08-10T00:14:25.519Z,20.8
2022-08-10T00:15:56.054Z,20.8
2022-08-10T00:16:59.169Z,20.8
2022-08-10T00:18:01.830Z,20.8
2022-08-10T00:19:03.881Z,20.7
2022-08-10T00:20:09.796Z,20.7
2022-08-10T00:21:14.171Z,20.7
2022-08-10T00:22:17.818Z,20.7
2022-08-10T00:23:20.177Z,20.7
2022-08-10T00:24:23.377Z,20.6
2022-08-10T00:25:26.373Z,20.6
2022-08-10T00:28:04.399Z,20.6
2022-08-10T00:29:12.163Z,20.6
2022-08-10T00:30:15.397Z,20.5
2022-08-10T00:31:18.300Z,20.5
2022-08-10T00:32:20.399Z,20.5
2022-08-10T00:33:22.980Z,20.5
2022-08-10T00:34:25.346Z,20.5
2022-08-10T00:35:28.234Z,20.4
2022-08-10T00:36:33.579Z,20.4
2022-08-10T00:37:36.629Z,20.4
2022-08-10T00:38:39.262Z,20.4
2022-08-10T00:39:41.804Z,20.4
2022-08-10T00:40:47.355Z,20.4
2022-08-10T00:42:08.852Z,20.4
2022-08-10T00:43:12.255Z,20.4
2022-08-10T00:44:15.512Z,20.3
2022-08-10T00:45:18.702Z,20.3
2022-08-10T00:46:21.333Z,20.3
2022-08-10T00:47:38.604Z,20.3
2022-08-10T00:48:41.454Z,20.2
2022-08-10T00:49:44.701Z,20.2
2022-08-10T00:50:47.204Z,20.2
2022-08-10T00:51:49.921Z,20.2
2022-08-10T00:52:52.560Z,20.2
2022-08-10T00:53:55.218Z,20.2
2022-08-10T00:54:58.398Z,20.1
2022-08-10T00:57:19.188Z,20.2
2022-08-10T00:58:22.313Z,20.2
2022-08-10T00:59:27.874Z,20.1
2022-08-10T01:00:29.889Z,20.1
2022-08-10T01:02:12.139Z,20.1
2022-08-10T01:03:15.306Z,20.1
2022-08-10T01:06:04.656Z,20
2022-08-10T01:07:07.498Z,20
2022-08-10T01:08:09.916Z,20
2022-08-10T01:09:13.118Z,20
2022-08-10T01:10:16.592Z,20
2022-08-10T01:12:42.281Z,19.9
2022-08-10T01:13:44.862Z,19.9
2022-08-10T01:14:48.277Z,19.9
2022-08-10T01:15:50.579Z,19.9
2022-08-10T01:16:53.491Z,19.9
2022-08-10T01:17:56.387Z,19.9
2022-08-10T01:19:01.464Z,19.9
2022-08-10T01:20:04.295Z,19.9
2022-08-10T01:21:08.673Z,19.9
2022-08-10T01:22:11.517Z,19.9
2022-08-10T01:23:13.880Z,19.9
2022-08-10T01:24:25.614Z,19.9
2022-08-10T01:25:28.739Z,19.9
2022-08-10T01:26:40.591Z,19.9
2022-08-10T01:27:43.920Z,19.9
2022-08-10T01:28:46.485Z,19.8
2022-08-10T01:29:49.122Z,19.8
2022-08-10T01:30:53.394Z,19.8
2022-08-10T01:31:58.255Z,19.8
2022-08-10T01:33:00.840Z,19.8
2022-08-10T01:34:03.857Z,19.8
2022-08-10T01:35:06.549Z,19.8
2022-08-10T01:36:12.393Z,19.8
2022-08-10T01:37:15.579Z,19.8
2022-08-10T01:38:18.258Z,19.8
2022-08-10T01:39:21.081Z,19.8
2022-08-10T01:40:23.698Z,19.7
2022-08-10T01:41:27.306Z,19.7
2022-08-10T01:42:50.243Z,19.7
2022-08-10T01:43:53.515Z,19.7
2022-08-10T01:44:56.653Z,19.7
2022-08-10T01:45:59.613Z,19.7
2022-08-10T01:47:02.978Z,19.7
2022-08-10T01:48:17.651Z,19.7
2022-08-10T01:49:21.060Z,19.7
2022-08-10T01:50:23.951Z,19.6
2022-08-10T01:51:26.852Z,19.6
2022-08-10T01:52:29.097Z,19.6
2022-08-10T01:53:42.083Z,19.6
2022-08-10T01:54:45.538Z,19.6
2022-08-10T01:55:48.999Z,19.6
2022-08-10T01:56:51.635Z,19.5
2022-08-10T01:57:54.545Z,19.5
2022-08-10T01:58:57.394Z,19.5
2022-08-10T02:00:03.847Z,19.5
2022-08-10T02:01:06.867Z,19.5
2022-08-10T02:02:09.081Z,19.5
2022-08-10T02:03:11.929Z,19.5
2022-08-10T02:04:14.502Z,19.5
2022-08-10T02:05:16.738Z,19.4
2022-08-10T02:06:19.716Z,19.4
2022-08-10T02:07:21.993Z,19.4
2022-08-10T02:08:24.886Z,19.4
2022-08-10T02:09:28.081Z,19.4
2022-08-10T02:10:31.250Z,19.4
2022-08-10T02:12:09.556Z,19.4
2022-08-10T02:13:12.677Z,19.4
2022-08-10T02:14:15.240Z,19.3
2022-08-10T02:15:18.409Z,19.3
2022-08-10T02:16:20.915Z,19.3
2022-08-10T02:18:02.541Z,19.3
2022-08-10T02:19:04.825Z,19.3
2022-08-10T02:20:13.378Z,19.3
2022-08-10T02:21:16.558Z,19.3
2022-08-10T02:22:39.767Z,19.2
2022-08-10T02:23:42.893Z,19.2
2022-08-10T02:25:01.868Z,19.2
2022-08-10T02:26:04.216Z,19.2
2022-08-10T02:27:06.901Z,19.2
2022-08-10T02:28:10.077Z,19.2
2022-08-10T02:29:12.697Z,19.1
2022-08-10T02:30:15.336Z,19.1
2022-08-10T02:31:23.510Z,19.1
2022-08-10T02:32:39.446Z,19.1
2022-08-10T02:33:59.766Z,19.1
2022-08-10T02:35:03.646Z,19.1
2022-08-10T02:36:06.485Z,19.1
2022-08-10T02:37:13.812Z,19.1
2022-08-10T02:38:16.726Z,19
2022-08-10T02:39:19.669Z,19
2022-08-10T02:45:31.878Z,19
2022-08-10T02:46:37.970Z,19
2022-08-10T02:47:53.257Z,18.9
2022-08-10T02:48:56.180Z,18.9
2022-08-10T02:50:00.782Z,18.9
2022-08-10T02:51:03.421Z,18.9
2022-08-10T02:52:09.239Z,18.9
2022-08-10T02:53:57.645Z,18.9
2022-08-10T02:55:19.245Z,18.9
2022-08-10T02:56:35.293Z,18.9
2022-08-10T02:58:18.777Z,18.8
2022-08-10T02:59:21.286Z,18.8
2022-08-10T03:00:24.192Z,18.8
2022-08-10T03:01:27.085Z,18.8
2022-08-10T03:02:30.308Z,18.8
2022-08-10T03:03:32.450Z,18.8
2022-08-10T03:04:59.036Z,18.8
2022-08-10T03:06:01.888Z,18.8
2022-08-10T03:07:04.394Z,18.8
2022-08-10T03:08:07.305Z,18.8
2022-08-10T03:09:09.677Z,18.8
2022-08-10T03:10:15.084Z,18.8
2022-08-10T03:12:38.992Z,18.8
2022-08-10T03:13:42.436Z,18.8
2022-08-10T03:14:44.859Z,18.8
2022-08-10T03:15:47.835Z,18.8
2022-08-10T03:16:50.472Z,18.7
2022-08-10T03:17:59.345Z,18.8
2022-08-10T03:19:02.191Z,18.8
2022-08-10T03:20:40.703Z,18.8
2022-08-10T03:21:49.445Z,18.7
2022-08-10T03:22:52.308Z,18.7
2022-08-10T03:23:55.219Z,18.7
2022-08-10T03:24:57.860Z,18.7
2022-08-10T03:26:00.824Z,18.7
2022-08-10T03:27:03.187Z,18.7
2022-08-10T03:28:04.986Z,18.7
2022-08-10T03:29:07.893Z,18.6
2022-08-10T03:30:35.185Z,18.6
2022-08-10T03:31:41.053Z,18.6
2022-08-10T03:32:43.797Z,18.6
2022-08-10T03:33:46.979Z,18.6
2022-08-10T03:34:49.941Z,18.6
2022-08-10T03:36:45.785Z,18.6
2022-08-10T03:37:48.616Z,18.6
2022-08-10T03:39:02.472Z,18.6
2022-08-10T03:40:05.363Z,18.6
2022-08-10T03:41:08.272Z,18.6
2022-08-10T03:42:11.181Z,18.6
2022-08-10T03:43:14.095Z,18.6
2022-08-10T03:44:18.386Z,18.6
2022-08-10T03:45:21.288Z,18.6
2022-08-10T03:46:24.806Z,18.6
2022-08-10T03:47:27.434Z,18.6
2022-08-10T03:48:50.661Z,18.6
2022-08-10T03:49:53.510Z,18.6
2022-08-10T03:50:55.646Z,18.6
2022-08-10T03:51:59.732Z,18.6
2022-08-10T03:53:02.148Z,18.5
2022-08-10T03:54:08.426Z,18.5
2022-08-10T03:56:31.360Z,18.5
2022-08-10T03:57:50.429Z,18.5
2022-08-10T03:58:54.116Z,18.5
2022-08-10T03:59:57.299Z,18.5
2022-08-10T04:01:00.537Z,18.5
2022-08-10T04:02:48.722Z,18.5
2022-08-10T04:04:19.133Z,18.5
2022-08-10T04:05:39.869Z,18.5
2022-08-10T04:06:42.985Z,18.5
2022-08-10T04:07:46.206Z,18.5
2022-08-10T04:08:49.166Z,18.5
2022-08-10T04:09:59.231Z,18.5
2022-08-10T04:11:02.263Z,18.5
2022-08-10T04:12:04.886Z,18.5
2022-08-10T04:13:07.736Z,18.5
2022-08-10T04:14:53.798Z,18.5
2022-08-10T04:15:57.423Z,18.5
2022-08-10T04:17:14.536Z,18.5
2022-08-10T04:18:16.934Z,18.5
2022-08-10T04:19:19.598Z,18.6
2022-08-10T04:20:21.958Z,18.6
2022-08-10T04:21:25.141Z,18.5
2022-08-10T04:22:27.472Z,18.6
2022-08-10T04:23:30.095Z,18.6
2022-08-10T04:24:33.956Z,18.6
2022-08-10T04:25:37.149Z,18.6
2022-08-10T04:26:39.717Z,18.6
2022-08-10T04:27:42.081Z,18.6
2022-08-10T04:28:44.978Z,18.6
2022-08-10T04:29:47.823Z,18.6
2022-08-10T04:30:50.389Z,18.6
2022-08-10T04:31:53.373Z,18.6
2022-08-10T04:32:56.565Z,18.7
2022-08-10T04:34:09.461Z,18.6
2022-08-10T04:35:12.372Z,18.7
2022-08-10T04:36:14.676Z,18.7
2022-08-10T04:37:17.601Z,18.6
2022-08-10T04:38:20.233Z,18.7
2022-08-10T04:39:22.900Z,18.7
2022-08-10T04:40:31.812Z,18.7
2022-08-10T04:41:34.192Z,18.7
2022-08-10T04:42:37.700Z,18.7
2022-08-10T04:43:40.317Z,18.7
2022-08-10T04:44:42.987Z,18.7
2022-08-10T04:45:52.201Z,18.7
2022-08-10T04:47:01.193Z,18.8
2022-08-10T04:48:05.155Z,18.8
2022-08-10T04:51:00.780Z,18.8
2022-08-10T04:52:03.627Z,18.8
2022-08-10T04:53:06.312Z,18.9
2022-08-10T04:54:15.878Z,18.8
2022-08-10T04:55:19.678Z,18.9
2022-08-10T04:56:32.822Z,18.9
2022-08-10T04:57:35.745Z,18.9
2022-08-10T04:58:38.365Z,18.9
2022-08-10T04:59:41.270Z,18.9
2022-08-10T05:00:44.105Z,19
2022-08-10T05:02:32.862Z,19
2022-08-10T05:04:39.763Z,19
2022-08-10T05:05:42.605Z,19
2022-08-10T05:06:44.944Z,19.1
2022-08-10T05:07:57.518Z,19.1
2022-08-10T05:09:00.702Z,19.1
2022-08-10T05:10:13.736Z,19.1
2022-08-10T05:11:25.104Z,19.2
2022-08-10T05:12:28.006Z,19.2
2022-08-10T05:13:31.253Z,19.2
2022-08-10T05:14:34.170Z,19.3
2022-08-10T05:15:36.400Z,19.3
2022-08-10T05:16:39.023Z,19.3
2022-08-10T05:18:11.156Z,19.3
2022-08-10T05:19:14.509Z,19.3
2022-08-10T05:20:16.861Z,19.3
2022-08-10T05:22:05.467Z,19.4
2022-08-10T05:23:07.770Z,19.4
2022-08-10T05:24:10.732Z,19.4
2022-08-10T05:25:13.680Z,19.5
2022-08-10T05:26:16.708Z,19.5
2022-08-10T05:27:19.909Z,19.5
2022-08-10T05:28:35.400Z,19.6
2022-08-10T05:29:38.254Z,19.6
2022-08-10T05:30:41.100Z,19.6
2022-08-10T05:31:43.777Z,19.6
2022-08-10T05:33:06.671Z,19.7
2022-08-10T05:34:21.635Z,19.7
2022-08-10T05:35:24.420Z,19.8
2022-08-10T05:36:26.827Z,19.8
2022-08-10T05:38:15.311Z,19.8
2022-08-10T05:39:32.368Z,19.9
2022-08-10T05:40:35.080Z,19.9
2022-08-10T05:41:51.073Z,19.9
2022-08-10T05:42:55.960Z,20
2022-08-10T05:44:00.746Z,20
2022-08-10T05:45:03.591Z,20.1
2022-08-10T05:46:21.738Z,20.1
2022-08-10T05:47:24.527Z,20.2
2022-08-10T05:50:06.072Z,20.2
2022-08-10T05:51:09.181Z,20.3
2022-08-10T05:52:12.374Z,20.4
2022-08-10T05:54:07.166Z,20.4
2022-08-10T05:55:09.187Z,20.5
2022-08-10T05:56:12.105Z,20.5
2022-08-10T05:57:14.459Z,20.5
2022-08-10T05:58:17.092Z,20.5
2022-08-10T06:00:49.992Z,20.6
2022-08-10T06:02:36.512Z,20.6
2022-08-10T06:03:39.327Z,20.7
2022-08-10T06:04:42.806Z,20.7
2022-08-10T06:05:45.776Z,20.8
2022-08-10T06:06:48.965Z,20.8
2022-08-10T06:07:51.487Z,20.9
2022-08-10T06:08:54.072Z,21
2022-08-10T06:10:01.607Z,21
2022-08-10T06:12:54.595Z,21
2022-08-10T06:14:29.796Z,21.1
2022-08-10T06:15:53.470Z,21.2
2022-08-10T06:16:56.039Z,21.2
2022-08-10T06:18:03.271Z,21.3
2022-08-10T06:19:05.627Z,21.3
2022-08-10T06:20:08.814Z,21.3
2022-08-10T06:21:11.734Z,21.4
2022-08-10T06:22:15.220Z,21.4
2022-08-10T06:23:18.125Z,21.4
2022-08-10T06:24:31.222Z,21.5
2022-08-10T06:26:21.099Z,21.5
2022-08-10T06:27:35.659Z,21.6
2022-08-10T06:28:37.958Z,21.6
2022-08-10T06:29:41.142Z,21.6
2022-08-10T06:30:43.991Z,21.7
2022-08-10T06:31:50.523Z,21.7
2022-08-10T06:32:53.650Z,21.8
2022-08-10T06:33:56.008Z,21.8
2022-08-10T06:34:58.925Z,21.8
2022-08-10T06:36:01.356Z,21.9
2022-08-10T06:37:04.287Z,21.9
2022-08-10T06:38:06.624Z,22
2022-08-10T06:39:36.293Z,22
2022-08-10T06:40:39.586Z,22.1
2022-08-10T06:42:18.685Z,22.1
2022-08-10T06:43:21.593Z,22.2
2022-08-10T06:44:24.825Z,22.3
2022-08-10T06:45:27.966Z,22.3
2022-08-10T06:46:30.592Z,22.3
2022-08-10T06:47:33.547Z,22.3
2022-08-10T06:48:36.399Z,22.4
2022-08-10T06:49:38.822Z,22.4
2022-08-10T06:50:59.578Z,22.4
2022-08-10T06:52:02.798Z,22.5
2022-08-10T06:53:05.372Z,22.5
2022-08-10T06:54:08.541Z,22.5
2022-08-10T06:55:12.132Z,22.6
2022-08-10T06:57:19.139Z,22.6
2022-08-10T06:58:27.867Z,22.7
2022-08-10T06:59:30.489Z,22.7
2022-08-10T07:00:35.395Z,22.8
2022-08-10T07:01:37.940Z,22.7
2022-08-10T07:02:40.962Z,22.8
2022-08-10T07:03:43.665Z,22.8
2022-08-10T07:04:46.340Z,22.9
2022-08-10T07:05:51.786Z,22.9
2022-08-10T07:06:55.138Z,22.9
2022-08-10T07:07:58.325Z,22.9
2022-08-10T07:09:01.294Z,23
2022-08-10T07:10:04.155Z,23.1
2022-08-10T07:11:12.484Z,23.1
2022-08-10T07:12:15.118Z,23.1
2022-08-10T07:14:18.914Z,23.1
2022-08-10T07:15:22.045Z,23.2
2022-08-10T07:17:02.525Z,23.2
2022-08-10T07:18:04.882Z,23.2
2022-08-10T07:19:07.740Z,23.3
2022-08-10T07:20:10.705Z,23.3
2022-08-10T07:21:13.630Z,23.3
2022-08-10T07:24:01.238Z,23.3
2022-08-10T07:25:07.781Z,23.4
2022-08-10T07:26:10.349Z,23.4
2022-08-10T07:27:13.301Z,23.5
2022-08-10T07:28:16.207Z,23.5
2022-08-10T07:29:55.059Z,23.5
2022-08-10T07:30:58.213Z,23.6
2022-08-10T07:32:01.129Z,23.6
2022-08-10T07:33:03.883Z,23.6
2022-08-10T07:34:06.813Z,23.6
2022-08-10T07:35:09.854Z,23.7
2022-08-10T07:36:13.059Z,23.7
2022-08-10T07:37:16.514Z,23.7
2022-08-10T07:38:19.992Z,23.7
2022-08-10T07:40:05.570Z,23.8
2022-08-10T07:41:09.592Z,23.8
2022-08-10T07:42:12.454Z,23.8
2022-08-10T07:43:14.886Z,23.9
2022-08-10T07:44:18.074Z,23.8
2022-08-10T07:45:21.039Z,23.9
2022-08-10T07:46:23.647Z,23.9
2022-08-10T07:47:55.601Z,24
2022-08-10T07:48:59.017Z,24
2022-08-10T07:50:01.646Z,24
2022-08-10T07:51:04.036Z,24.1
2022-08-10T07:52:06.370Z,24.1
2022-08-10T07:53:08.727Z,24.1
2022-08-10T07:54:11.078Z,24.1
2022-08-10T07:55:13.988Z,24.2
2022-08-10T07:56:50.084Z,24.2
2022-08-10T07:57:53.481Z,24.2
2022-08-10T07:58:56.675Z,24.3
2022-08-10T08:00:00.090Z,24.3
2022-08-10T08:01:02.801Z,24.3
2022-08-10T08:02:06.399Z,24.4
2022-08-10T08:03:10.363Z,24.4
2022-08-10T08:04:13.315Z,24.4
2022-08-10T08:06:11.505Z,24.5
2022-08-10T08:07:21.732Z,24.5
2022-08-10T08:08:24.373Z,24.5
2022-08-10T08:09:31.700Z,24.5
2022-08-10T08:10:34.617Z,24.6
2022-08-10T08:11:37.890Z,24.6
2022-08-10T08:12:42.568Z,24.6
2022-08-10T08:13:52.069Z,24.7
2022-08-10T08:14:55.269Z,24.7
2022-08-10T08:16:22.449Z,24.7
2022-08-10T08:17:37.185Z,24.7
2022-08-10T08:19:35.793Z,24.7
2022-08-10T08:20:58.408Z,24.8
2022-08-10T08:25:36.574Z,24.8
2022-08-10T08:26:38.871Z,25
2022-08-10T08:27:49.773Z,25
2022-08-10T08:28:52.903Z,25
2022-08-10T08:29:55.530Z,25.1
2022-08-10T08:30:57.893Z,25.1
2022-08-10T08:32:04.361Z,25.1
2022-08-10T08:33:07.998Z,25.2
2022-08-10T08:34:11.113Z,25.2
2022-08-10T08:35:14.086Z,25.2
2022-08-10T08:36:16.933Z,25.3
2022-08-10T08:38:35.226Z,25.3
2022-08-10T08:39:38.695Z,25.3
2022-08-10T08:40:45.570Z,25.4
2022-08-10T08:41:48.759Z,25.4
2022-08-10T08:42:51.739Z,25.5
2022-08-10T08:43:54.705Z,25.5
2022-08-10T08:44:57.336Z,25.5
2022-08-10T08:46:03.047Z,25.5
2022-08-10T08:48:07.055Z,25.6
2022-08-10T08:49:10.159Z,25.6
2022-08-10T08:50:12.740Z,25.7
2022-08-10T08:52:19.181Z,25.7
2022-08-10T08:53:23.618Z,25.7
2022-08-10T08:56:07.814Z,25.8
2022-08-10T08:57:10.677Z,25.9
2022-08-10T08:58:52.404Z,25.9
2022-08-10T08:59:55.082Z,26
2022-08-10T09:00:58.040Z,26
2022-08-10T09:02:01.443Z,26.1
2022-08-10T09:03:04.775Z,26.1
2022-08-10T09:04:22.686Z,26.1
2022-08-10T09:05:26.990Z,26.2
2022-08-10T09:06:29.888Z,26.3
2022-08-10T09:08:03.725Z,26.3
2022-08-10T09:09:06.013Z,26.3
2022-08-10T09:10:09.130Z,26.4
2022-08-10T09:11:12.098Z,26.5
2022-08-10T09:12:14.170Z,26.5
2022-08-10T09:13:16.507Z,26.6
2022-08-10T09:14:27.190Z,26.6
2022-08-10T09:15:42.156Z,26.7
2022-08-10T09:16:45.208Z,26.7
2022-08-10T09:17:47.611Z,26.7
2022-08-10T09:18:51.125Z,26.8
2022-08-10T09:19:53.831Z,26.9
2022-08-10T09:20:55.906Z,26.9
2022-08-10T09:22:19.879Z,27
2022-08-10T09:24:06.531Z,27
2022-08-10T09:25:09.492Z,27.1
2022-08-10T09:26:12.209Z,27.2
2022-08-10T09:27:14.847Z,27.2
2022-08-10T09:28:17.280Z,27.3
2022-08-10T09:29:20.689Z,27.3
2022-08-10T09:30:34.744Z,27.4
2022-08-10T09:36:33.922Z,27.5
2022-08-10T09:38:03.750Z,27.6
2022-08-10T09:39:07.270Z,27.8
2022-08-10T09:41:12.976Z,27.9
2022-08-10T09:42:17.518Z,28
2022-08-10T09:43:27.578Z,28.1
2022-08-10T09:44:31.032Z,28.1
2022-08-10T09:45:33.381Z,28.2
2022-08-10T09:46:36.577Z,28.3
2022-08-10T09:48:03.845Z,28.3
2022-08-10T09:49:07.242Z,28.4
2022-08-10T09:50:10.373Z,28.4
2022-08-10T09:51:47.271Z,28.4
2022-08-10T09:52:59.804Z,28.5
2022-08-10T09:54:02.995Z,28.5
2022-08-10T09:55:06.133Z,28.6
2022-08-10T09:56:28.222Z,28.7
2022-08-10T09:57:57.674Z,28.7
2022-08-10T10:00:03.310Z,28.9
2022-08-10T10:02:04.546Z,28.9
2022-08-10T10:03:07.660Z,29.1
2022-08-10T10:04:11.125Z,29.1
2022-08-10T10:05:14.030Z,29.2
2022-08-10T10:06:17.220Z,29.3
2022-08-10T10:07:19.582Z,29.3
2022-08-10T10:08:23.161Z,29.3
2022-08-10T10:09:27.987Z,29.4
2022-08-10T10:10:29.992Z,29.4
2022-08-10T10:11:33.181Z,29.5
2022-08-10T10:12:36.685Z,29.5
2022-08-10T10:14:12.264Z,29.6
2022-08-10T10:15:26.318Z,29.6
2022-08-10T10:16:29.651Z,29.7
2022-08-10T10:17:32.032Z,29.8
2022-08-10T10:18:35.153Z,29.9
2022-08-10T10:19:41.583Z,29.9
2022-08-10T10:20:44.227Z,30
2022-08-10T10:21:57.280Z,30.1
2022-08-10T10:22:59.799Z,30.2
2022-08-10T10:24:23.310Z,30.2
2022-08-10T10:25:55.451Z,30.2
2022-08-10T10:27:20.630Z,30.3
2022-08-10T10:28:23.521Z,30.3
2022-08-10T10:31:00.806Z,30.3
2022-08-10T10:32:04.005Z,30.4
2022-08-10T10:33:07.358Z,30.4
2022-08-10T10:34:17.268Z,30.5
2022-08-10T10:35:20.738Z,30.5
2022-08-10T10:36:23.105Z,30.6
2022-08-10T10:38:03.937Z,30.6
2022-08-10T10:39:07.208Z,30.7
2022-08-10T10:40:13.688Z,30.8
2022-08-10T10:41:17.111Z,30.9
2022-08-10T10:42:46.349Z,31
2022-08-10T10:43:49.391Z,31.1
2022-08-10T10:44:51.672Z,31.2
2022-08-10T10:45:54.237Z,31.3
2022-08-10T10:46:57.101Z,31.4
2022-08-10T10:47:59.453Z,31.4
2022-08-10T10:49:01.816Z,31.5
2022-08-10T10:50:04.464Z,31.6
2022-08-10T10:51:11.658Z,31.7
2022-08-10T10:52:14.796Z,31.7
2022-08-10T10:53:17.221Z,31.8
2022-08-10T10:54:20.722Z,31.9
2022-08-10T10:55:23.335Z,32
2022-08-10T10:56:25.956Z,32
2022-08-10T10:58:01.776Z,32.1
2022-08-10T10:59:58.015Z,32.1
2022-08-10T11:01:01.780Z,32.1
2022-08-10T11:02:04.335Z,32.2
2022-08-10T11:03:06.899Z,32.2
2022-08-10T11:04:08.987Z,32.3
2022-08-10T11:05:11.633Z,32.3
2022-08-10T11:06:14.275Z,32.4
2022-08-10T11:07:33.721Z,32.4
2022-08-10T11:08:43.698Z,32.4
2022-08-10T11:10:34.736Z,32.5
2022-08-10T11:12:05.345Z,32.6
2022-08-10T11:14:30.014Z,32.7
2022-08-10T11:15:47.513Z,32.8
2022-08-10T11:17:00.840Z,32.8
2022-08-10T11:18:03.074Z,32.9
2022-08-10T11:19:05.919Z,33
2022-08-10T11:20:08.906Z,33
2022-08-10T11:21:15.621Z,33.1
2022-08-10T11:22:24.212Z,33.1
2022-08-10T11:23:26.580Z,33.2
2022-08-10T11:24:51.065Z,33.2
2022-08-10T11:25:59.645Z,33.2
2022-08-10T11:27:02.717Z,33.3
2022-08-10T11:28:05.288Z,33.3
2022-08-10T11:29:08.769Z,33.4
2022-08-10T11:30:11.673Z,33.5
2022-08-10T11:31:14.306Z,33.5
2022-08-10T11:32:22.194Z,33.6
2022-08-10T11:34:11.090Z,33.6
2022-08-10T11:36:15.276Z,33.7
2022-08-10T11:37:18.449Z,33.9
2022-08-10T11:39:13.820Z,33.9
2022-08-10T11:40:17.929Z,34
2022-08-10T11:42:33.377Z,34.2
2022-08-10T11:43:38.996Z,34.2
2022-08-10T11:44:42.129Z,34.4
2022-08-10T11:45:56.058Z,34.4
2022-08-10T11:47:09.990Z,34.5
2022-08-10T11:49:03.518Z,34.6
2022-08-10T11:50:06.715Z,34.7
2022-08-10T11:51:09.276Z,34.7
2022-08-10T11:52:15.510Z,34.8
2022-08-10T11:53:18.137Z,34.8
2022-08-10T11:54:20.756Z,34.9
2022-08-10T11:55:23.652Z,34.9
2022-08-10T11:56:27.046Z,34.9
2022-08-10T11:57:56.357Z,35
2022-08-10T11:59:18.087Z,35
2022-08-10T12:00:20.978Z,35
2022-08-10T12:01:23.878Z,35
2022-08-10T12:02:26.216Z,35
2022-08-10T12:03:35.642Z,35.1
2022-08-10T12:04:38.677Z,35.1
2022-08-10T12:05:55.479Z,35.2
2022-08-10T12:06:58.041Z,35.2
2022-08-10T12:10:14.522Z,35.3
2022-08-10T12:11:25.995Z,35.3
2022-08-10T12:12:28.860Z,35.5
2022-08-10T12:13:31.638Z,35.6
2022-08-10T12:14:34.049Z,35.6
2022-08-10T12:15:36.185Z,35.6
2022-08-10T12:16:38.761Z,35.7
2022-08-10T12:17:41.350Z,35.7
2022-08-10T12:18:44.927Z,35.7
2022-08-10T12:20:04.515Z,35.7
2022-08-10T12:21:07.148Z,35.8
2022-08-10T12:22:10.344Z,35.7
2022-08-10T12:23:13.274Z,35.8
2022-08-10T12:24:15.989Z,35.8
2022-08-10T12:25:59.001Z,35.8
2022-08-10T12:27:02.118Z,35.9
2022-08-10T12:28:04.139Z,36
2022-08-10T12:29:07.034Z,36
2022-08-10T12:30:09.673Z,36
2022-08-10T12:31:12.875Z,36
2022-08-10T12:32:15.811Z,36
2022-08-10T12:33:27.991Z,36.1
2022-08-10T12:34:31.112Z,36.1
2022-08-10T12:35:34.306Z,36.2
2022-08-10T12:36:36.678Z,36.1
2022-08-10T12:37:39.086Z,36.1
2022-08-10T12:38:41.939Z,36.2
2022-08-10T12:39:46.443Z,36.1
2022-08-10T12:40:49.227Z,36.4
2022-08-10T12:41:51.785Z,36.1
2022-08-10T12:44:09.052Z,36.1
2022-08-10T12:45:12.752Z,36.2
2022-08-10T12:46:15.608Z,36.2
2022-08-10T12:47:18.231Z,36.2
2022-08-10T12:48:21.133Z,36.3
2022-08-10T12:49:24.305Z,36.1
2022-08-10T12:50:34.715Z,36.1
2022-08-10T12:51:37.202Z,36.1
2022-08-10T12:52:50.798Z,36.1
2022-08-10T12:53:53.134Z,36.2
2022-08-10T12:54:56.037Z,36.1
2022-08-10T12:55:59.012Z,36.2
2022-08-10T12:57:01.581Z,36.3
2022-08-10T12:59:02.237Z,36.3
2022-08-10T13:00:04.699Z,36.3
2022-08-10T13:01:19.918Z,36.4
2022-08-10T13:02:23.605Z,36.4
2022-08-10T13:04:24.922Z,36.4
2022-08-10T13:05:27.990Z,36.4
2022-08-10T13:06:34.190Z,36.4
2022-08-10T13:08:28.747Z,36.4
2022-08-10T13:09:31.329Z,36.4
2022-08-10T13:10:34.027Z,36.4
2022-08-10T13:12:41.095Z,36.3
2022-08-10T13:13:49.839Z,36.4
2022-08-10T13:14:56.063Z,36.4
2022-08-10T13:15:58.380Z,36.4
2022-08-10T13:17:01.516Z,36.4
2022-08-10T13:18:04.407Z,36.4
2022-08-10T13:19:06.764Z,36.4
2022-08-10T13:20:14.832Z,36.4
2022-08-10T13:21:21.877Z,36.4
2022-08-10T13:22:24.176Z,36.4
2022-08-10T13:23:27.676Z,36.4
2022-08-10T13:24:30.331Z,36.5
2022-08-10T13:25:33.173Z,36.5
2022-08-10T13:26:37.142Z,36.5
2022-08-10T13:29:52.028Z,36.5
2022-08-10T13:31:05.810Z,36.6
2022-08-10T13:32:19.174Z,36.6
2022-08-10T13:34:45.653Z,36.6
2022-08-10T13:35:58.330Z,36.7
2022-08-10T13:37:04.617Z,36.8
2022-08-10T13:38:07.849Z,36.8
2022-08-10T13:39:10.778Z,36.8
2022-08-10T13:40:13.611Z,36.9
2022-08-10T13:41:16.251Z,36.9
2022-08-10T13:42:33.559Z,36.9
2022-08-10T13:43:36.553Z,36.9
2022-08-10T13:44:39.407Z,36.9
2022-08-10T13:45:50.188Z,36.8
2022-08-10T13:46:53.159Z,36.8
2022-08-10T13:47:56.069Z,36.9
2022-08-10T13:49:00.068Z,36.9
2022-08-10T13:50:05.289Z,36.9
2022-08-10T13:51:10.633Z,36.9
2022-08-10T13:52:13.039Z,36.9
2022-08-10T13:53:16.673Z,36.9
2022-08-10T13:54:19.311Z,36.9
2022-08-10T13:55:22.223Z,36.9
2022-08-10T13:56:25.138Z,36.9
2022-08-10T13:57:27.554Z,36.9
2022-08-10T13:58:32.338Z,36.9
2022-08-10T14:00:39.217Z,37
2022-08-10T14:01:46.117Z,37
2022-08-10T14:02:49.600Z,37.1
2022-08-10T14:03:51.616Z,37.1
2022-08-10T14:04:54.597Z,37.1
2022-08-10T14:05:56.716Z,37.2
2022-08-10T14:07:00.175Z,37.1
2022-08-10T14:08:03.081Z,37.1
2022-08-10T14:09:05.723Z,37.1
2022-08-10T14:10:08.674Z,37.1
2022-08-10T14:11:12.825Z,37.1
2022-08-10T14:12:15.755Z,37.1
2022-08-10T14:13:19.209Z,37.1
2022-08-10T14:14:22.407Z,37.2
2022-08-10T14:15:25.251Z,37.2
2022-08-10T14:16:28.176Z,37.3
2022-08-10T14:17:31.014Z,37.3
2022-08-10T14:18:34.006Z,37.4
2022-08-10T14:19:44.138Z,37.4
2022-08-10T14:21:14.917Z,37.4
2022-08-10T14:22:42.718Z,37.4
2022-08-10T14:23:54.427Z,37.4
2022-08-10T14:24:57.558Z,37.5
2022-08-10T14:26:02.274Z,37.5
2022-08-10T14:27:17.600Z,37.5
2022-08-10T14:28:19.971Z,37.6
2022-08-10T14:29:22.909Z,37.6
2022-08-10T14:30:31.854Z,37.6
2022-08-10T14:31:34.779Z,37.6
2022-08-10T14:32:38.323Z,37.6
2022-08-10T14:33:41.331Z,37.6
2022-08-10T14:36:25.174Z,37.6
2022-08-10T14:37:29.916Z,37.6
2022-08-10T14:38:42.282Z,37.5
2022-08-10T14:39:45.498Z,37.5
2022-08-10T14:40:48.635Z,37.5
2022-08-10T14:42:27.115Z,37.4
2022-08-10T14:43:30.997Z,37.4
2022-08-10T14:44:33.743Z,37.4
2022-08-10T14:45:36.930Z,37.5
2022-08-10T14:46:40.192Z,37.5
2022-08-10T14:48:04.429Z,37.5
2022-08-10T14:49:27.903Z,37.5
2022-08-10T14:51:02.832Z,37.6
2022-08-10T14:52:05.471Z,37.7
2022-08-10T14:53:10.864Z,37.7
2022-08-10T14:54:17.960Z,37.7
2022-08-10T14:55:20.584Z,37.7
2022-08-10T14:56:23.666Z,37.7
2022-08-10T14:58:21.736Z,37.7
2022-08-10T15:00:32.916Z,37.7
2022-08-10T15:02:58.452Z,37.7
2022-08-10T15:05:09.677Z,37.8
2022-08-10T15:06:19.068Z,37.9
2022-08-10T15:07:33.082Z,37.9
2022-08-10T15:08:38.035Z,37.9
2022-08-10T15:10:04.987Z,38
2022-08-10T15:11:07.443Z,38
2022-08-10T15:13:35.601Z,38
2022-08-10T15:14:46.109Z,38.1
2022-08-10T15:16:14.113Z,38.2
2022-08-10T15:17:19.426Z,38.2
2022-08-10T15:18:27.634Z,38.2
2022-08-10T15:20:14.802Z,38.3
2022-08-10T15:21:43.879Z,38.3
2022-08-10T15:22:47.236Z,38.3
2022-08-10T15:24:10.337Z,38.3
2022-08-10T15:25:26.394Z,38.4
2022-08-10T15:26:29.331Z,38.4
2022-08-10T15:27:56.336Z,38.4
2022-08-10T15:29:26.297Z,38.3
2022-08-10T15:30:31.988Z,38.4
2022-08-10T15:31:34.907Z,38.4
2022-08-10T15:32:37.315Z,38.4
2022-08-10T15:34:05.814Z,38.4
2022-08-10T15:35:10.502Z,38.3
2022-08-10T15:36:21.180Z,38.3
2022-08-10T15:37:41.948Z,38.3
2022-08-10T15:38:45.921Z,38.2
2022-08-10T15:40:37.521Z,38.2
2022-08-10T15:42:01.307Z,38.2
2022-08-10T15:43:25.789Z,38.2
2022-08-10T15:44:45.793Z,38.1
2022-08-10T15:45:50.328Z,38.1
2022-08-10T15:46:54.661Z,38.1
2022-08-10T15:48:04.589Z,38.1
2022-08-10T15:49:07.499Z,38.1
2022-08-10T15:50:10.414Z,38
2022-08-10T15:51:18.196Z,38
2022-08-10T15:53:03.115Z,38
2022-08-10T15:54:12.416Z,38
2022-08-10T15:55:46.216Z,38
2022-08-10T15:56:54.853Z,37.9
2022-08-10T15:57:57.769Z,37.9
2022-08-10T15:59:07.961Z,38
2022-08-10T16:00:10.597Z,37.9
2022-08-10T16:02:18.162Z,37.8
2022-08-10T16:03:28.453Z,37.9
2022-08-10T16:04:33.481Z,37.8
2022-08-10T16:06:03.919Z,37.7
2022-08-10T16:07:08.089Z,37.7
2022-08-10T16:08:11.031Z,37.7
2022-08-10T16:10:30.410Z,37.7
2022-08-10T16:11:41.273Z,37.7
2022-08-10T16:12:44.001Z,37.6
2022-08-10T16:15:09.433Z,37.6
2022-08-10T16:16:12.285Z,37.5
2022-08-10T16:17:15.208Z,37.4